Time;durP1;ratioP1;P1;durP2;ratioP2;P2;SDS_P1;SDS_P2;PMS_P1;PMS_P2;Temp;Humidity;BMP_temperature;BMP_pressure;BME280_temperature;BME280_humidity;BME280_pressure;Samples;Min_cycle;Max_cycle;Signal;HPM_P1;HPM_P2
2023/11/29 06:02:05;;;;;;;21.53;9.40;;;;;;;;;;5163919;23;20914;-74
2023/11/29 06:04:31;;;;;;;25.40;11.10;;;;;;;;;;4914611;29;20421;-74
2023/11/29 06:06:57;;;;;;;25.40;10.53;;;;;;;;;;4928349;29;20849;-74
2023/11/29 06:09:28;;;;;;;25.77;12.63;;;;;;;;;;4914481;29;20936;-74
2023/11/29 06:11:54;;;;;;;25.27;11.43;;;;;;;;;;4916165;29;20450;-74
2023/11/29 06:14:20;;;;;;;28.87;11.80;;;;;;;;;;4947419;23;20520;-74
2023/11/29 06:16:48;;;;;;;25.50;11.13;;;;;;;;;;4935085;29;20420;-72
2023/11/29 06:19:14;;;;;;;24.33;10.17;;;;;;;;;;4935402;29;20465;-72
2023/11/29 06:21:40;;;;;;;25.23;10.77;;;;;;;;;;4935602;29;20414;-72
2023/11/29 06:24:06;;;;;;;19.43;9.83;;;;;;;;;;4935318;29;20789;-73
2023/11/29 06:26:32;;;;;;;23.63;10.27;;;;;;;;;;4933759;29;20429;-73
2023/11/29 06:28:58;;;;;;;19.20;9.97;;;;;;;;;;4935024;29;20469;-73
2023/11/29 06:31:25;;;;;;;18.27;9.10;;;;;;;;;;4934922;29;20842;-72
2023/11/29 06:33:52;;;;;;;23.57;10.87;;;;;;;;;;4934907;29;20465;-74
2023/11/29 06:36:20;;;;;;;20.40;9.37;;;;;;;;;;4934756;29;20971;-73
2023/11/29 06:38:46;;;;;;;24.30;10.50;;;;;;;;;;4934652;29;20977;-73
2023/11/29 06:41:12;;;;;;;24.43;10.63;;;;;;;;;;4933450;29;20486;-73
2023/11/29 06:43:39;;;;;;;22.93;9.87;;;;;;;;;;4934421;29;20424;-73
2023/11/29 06:46:05;;;;;;;25.67;9.80;;;;;;;;;;4934536;29;20421;-73
2023/11/29 06:48:34;;;;;;;17.03;8.80;;;;;;;;;;4934823;29;20468;-72
2023/11/29 06:51:02;;;;;;;28.37;10.07;;;;;;;;;;4934718;29;20477;-72
2023/11/29 06:53:31;;;;;;;18.37;9.30;;;;;;;;;;4934825;29;20417;-72
2023/11/29 06:55:58;;;;;;;19.83;9.03;;;;;;;;;;4934605;29;20430;-72
2023/11/29 06:58:24;;;;;;;18.03;7.20;;;;;;;;;;4934241;29;20975;-72
2023/11/29 07:00:50;;;;;;;16.80;9.07;;;;;;;;;;4934636;29;20406;-71
2023/11/29 07:03:16;;;;;;;20.57;9.47;;;;;;;;;;4934995;29;20902;-72
2023/11/29 07:05:42;;;;;;;18.50;9.37;;;;;;;;;;4934332;29;20781;-73
2023/11/29 07:08:08;;;;;;;14.50;7.87;;;;;;;;;;4932874;29;20948;-73
2023/11/29 07:10:33;;;;;;;19.33;8.17;;;;;;;;;;4934453;29;20496;-72
2023/11/29 07:13:00;;;;;;;15.77;7.50;;;;;;;;;;4934578;29;20856;-73
2023/11/29 07:15:26;;;;;;;21.00;9.80;;;;;;;;;;4934441;29;20552;-72
2023/11/29 07:17:53;;;;;;;16.40;8.43;;;;;;;;;;4934163;29;20468;-72
2023/11/29 07:20:19;;;;;;;18.60;9.20;;;;;;;;;;4934422;29;20416;-72
2023/11/29 07:22:45;;;;;;;18.30;9.63;;;;;;;;;;4934501;29;20497;-72
2023/11/29 07:25:12;;;;;;;22.43;8.53;;;;;;;;;;4934120;29;20773;-72
2023/11/29 07:27:39;;;;;;;19.20;7.70;;;;;;;;;;4934163;29;20805;-72
2023/11/29 07:30:06;;;;;;;14.60;8.10;;;;;;;;;;4934377;29;20928;-72
2023/11/29 07:32:31;;;;;;;19.57;9.50;;;;;;;;;;4934477;29;20417;-72
2023/11/29 07:34:57;;;;;;;18.50;9.00;;;;;;;;;;4933906;29;20440;-72
2023/11/29 07:37:23;;;;;;;22.00;9.43;;;;;;;;;;4933845;29;20422;-72
2023/11/29 07:39:49;;;;;;;20.70;8.63;;;;;;;;;;4933763;29;20405;-72
2023/11/29 07:42:15;;;;;;;19.40;9.87;;;;;;;;;;4934999;29;20414;-71
2023/11/29 07:44:43;;;;;;;17.23;8.80;;;;;;;;;;4938014;29;20449;-72
2023/11/29 07:47:09;;;;;;;20.17;9.17;;;;;;;;;;4935973;29;20516;-72
2023/11/29 07:49:34;;;;;;;17.90;8.30;;;;;;;;;;4937442;29;20507;-72
2023/11/29 07:52:02;;;;;;;19.80;9.00;;;;;;;;;;4937490;29;20425;-72
2023/11/29 07:54:28;;;;;;;21.03;8.13;;;;;;;;;;4937508;29;20480;-72
2023/11/29 07:56:54;;;;;;;17.87;8.30;;;;;;;;;;4937320;29;21171;-72
2023/11/29 07:59:20;;;;;;;19.00;9.33;;;;;;;;;;4937536;29;20551;-72
2023/11/29 08:01:46;;;;;;;17.50;9.10;;;;;;;;;;4937488;29;20777;-72
2023/11/29 08:04:12;;;;;;;21.10;7.70;;;;;;;;;;4938730;29;20433;-72
2023/11/29 08:06:38;;;;;;;16.43;7.83;;;;;;;;;;4937756;29;20780;-72
2023/11/29 08:09:04;;;;;;;15.57;7.63;;;;;;;;;;4937237;29;20432;-72
2023/11/29 08:11:33;;;;;;;16.23;6.63;;;;;;;;;;4937387;29;20421;-72
2023/11/29 08:14:00;;;;;;;14.50;7.07;;;;;;;;;;4937266;29;21023;-72
2023/11/29 08:16:28;;;;;;;16.03;7.40;;;;;;;;;;4937502;29;20464;-72
2023/11/29 08:18:54;;;;;;;13.07;6.70;;;;;;;;;;4935780;29;20480;-72
2023/11/29 08:21:20;;;;;;;11.93;5.90;;;;;;;;;;4937338;29;20441;-72
2023/11/29 08:23:46;;;;;;;11.17;6.27;;;;;;;;;;4937088;29;20513;-72
2023/11/29 08:26:12;;;;;;;10.30;5.90;;;;;;;;;;4937309;29;20414;-72
2023/11/29 08:28:38;;;;;;;10.40;6.47;;;;;;;;;;4936872;29;20417;-72
2023/11/29 08:31:04;;;;;;;12.20;6.27;;;;;;;;;;4937366;29;20414;-72
2023/11/29 08:33:30;;;;;;;11.27;5.97;;;;;;;;;;4937277;29;20428;-72
2023/11/29 08:35:56;;;;;;;11.10;6.97;;;;;;;;;;4937294;29;20422;-72
2023/11/29 08:38:23;;;;;;;14.43;7.10;;;;;;;;;;4936755;29;20949;-72
2023/11/29 08:40:50;;;;;;;10.93;6.20;;;;;;;;;;4937095;29;20426;-72
2023/11/29 08:43:16;;;;;;;10.33;5.80;;;;;;;;;;4937050;29;20405;-72
2023/11/29 08:45:42;;;;;;;17.07;7.03;;;;;;;;;;4936775;29;20811;-72
2023/11/29 08:48:08;;;;;;;10.90;6.60;;;;;;;;;;4936573;29;20413;-72
2023/11/29 08:50:34;;;;;;;9.30;5.07;;;;;;;;;;4936973;29;20913;-72
2023/11/29 08:53:00;;;;;;;9.10;5.17;;;;;;;;;;4936485;29;20424;-72
2023/11/29 08:55:27;;;;;;;13.63;6.43;;;;;;;;;;4935968;29;20488;-73
2023/11/29 08:57:54;;;;;;;7.60;5.40;;;;;;;;;;4936577;29;20597;-72
2023/11/29 09:00:21;;;;;;;9.10;5.97;;;;;;;;;;4942387;29;20549;-73
2023/11/29 09:02:47;;;;;;;12.23;6.57;;;;;;;;;;4938530;29;20438;-72
2023/11/29 09:05:13;;;;;;;8.63;5.33;;;;;;;;;;4939040;29;20846;-72
2023/11/29 09:07:39;;;;;;;9.47;5.73;;;;;;;;;;4938036;29;20917;-73
2023/11/29 09:10:06;;;;;;;8.67;5.30;;;;;;;;;;4937384;29;20418;-72
2023/11/29 09:12:32;;;;;;;11.20;5.37;;;;;;;;;;4936762;29;20500;-72
2023/11/29 09:14:58;;;;;;;7.53;5.00;;;;;;;;;;4936109;29;20551;-72
2023/11/29 09:17:24;;;;;;;10.33;6.00;;;;;;;;;;4936282;29;20456;-72
2023/11/29 09:19:50;;;;;;;9.20;5.53;;;;;;;;;;4936377;29;20425;-72
2023/11/29 09:22:17;;;;;;;8.97;5.60;;;;;;;;;;4936068;29;20408;-72
2023/11/29 09:24:43;;;;;;;10.20;5.60;;;;;;;;;;4935845;29;20948;-73
2023/11/29 09:27:11;;;;;;;11.93;5.50;;;;;;;;;;4935452;29;20870;-73
2023/11/29 09:29:38;;;;;;;10.40;5.70;;;;;;;;;;4935957;29;20409;-72
2023/11/29 09:32:04;;;;;;;9.03;5.37;;;;;;;;;;4935872;29;20856;-73
2023/11/29 09:34:30;;;;;;;10.53;5.53;;;;;;;;;;4935908;29;20496;-73
2023/11/29 09:36:59;;;;;;;10.10;5.30;;;;;;;;;;4935588;29;20417;-73
2023/11/29 09:39:26;;;;;;;12.57;5.07;;;;;;;;;;4935836;29;20479;-73
2023/11/29 09:41:52;;;;;;;11.13;5.23;;;;;;;;;;4936899;29;20425;-71
2023/11/29 09:44:18;;;;;;;7.00;5.10;;;;;;;;;;4938753;29;20440;-72
2023/11/29 09:46:44;;;;;;;7.53;5.20;;;;;;;;;;4936007;29;20409;-72
2023/11/29 09:49:11;;;;;;;10.30;5.50;;;;;;;;;;4939166;29;20742;-72
2023/11/29 09:51:37;;;;;;;8.33;4.90;;;;;;;;;;4937190;29;20897;-73
2023/11/29 09:54:03;;;;;;;7.80;5.13;;;;;;;;;;4938365;29;20523;-72
2023/11/29 09:56:29;;;;;;;11.77;5.70;;;;;;;;;;4939644;29;20417;-72
2023/11/29 09:58:55;;;;;;;11.40;6.10;;;;;;;;;;4938895;29;20469;-72
2023/11/29 10:01:22;;;;;;;11.20;6.47;;;;;;;;;;4937826;29;20501;-72
2023/11/29 10:04:03;;;;;;;9.03;5.80;;;;;;;;;;4936629;29;20426;-72
2023/11/29 10:06:30;;;;;;;9.30;5.20;;;;;;;;;;4934881;29;20441;-72
2023/11/29 10:08:56;;;;;;;13.63;6.60;;;;;;;;;;4935358;29;20417;-72
2023/11/29 10:11:22;;;;;;;9.33;5.93;;;;;;;;;;4935447;29;20936;-72
2023/11/29 10:13:48;;;;;;;8.00;5.13;;;;;;;;;;4936620;29;20473;-72
2023/11/29 10:16:17;;;;;;;6.50;4.50;;;;;;;;;;4935158;29;20410;-72
2023/11/29 10:18:45;;;;;;;12.87;5.03;;;;;;;;;;4934843;29;20465;-72
2023/11/29 10:21:11;;;;;;;6.83;4.60;;;;;;;;;;4935097;29;20917;-73
2023/11/29 10:23:41;;;;;;;6.87;5.13;;;;;;;;;;4934977;29;20428;-72
2023/11/29 10:26:10;;;;;;;18.77;6.50;;;;;;;;;;4934972;29;20771;-72
2023/11/29 10:28:36;;;;;;;8.30;5.53;;;;;;;;;;4934871;29;20793;-72
2023/11/29 10:31:03;;;;;;;9.80;5.90;;;;;;;;;;4934843;29;20795;-72
2023/11/29 10:33:31;;;;;;;12.50;6.30;;;;;;;;;;4934778;29;20414;-72
2023/11/29 10:35:58;;;;;;;7.83;4.90;;;;;;;;;;4934754;29;20423;-72
2023/11/29 10:38:26;;;;;;;5.97;4.30;;;;;;;;;;4933522;29;20836;-71
2023/11/29 10:40:53;;;;;;;7.10;4.50;;;;;;;;;;4935180;29;20497;-71
2023/11/29 10:43:23;;;;;;;8.37;4.53;;;;;;;;;;4935104;29;20765;-71
2023/11/29 10:45:52;;;;;;;8.90;5.20;;;;;;;;;;4934721;29;20418;-71
2023/11/29 10:48:23;;;;;;;8.60;4.80;;;;;;;;;;4934393;29;20418;-72
2023/11/29 10:50:49;;;;;;;9.23;5.13;;;;;;;;;;4934595;29;20422;-71
2023/11/29 10:53:16;;;;;;;8.13;5.13;;;;;;;;;;4934738;29;20935;-72
2023/11/29 10:55:43;;;;;;;18.63;5.13;;;;;;;;;;4934500;29;20441;-71
2023/11/29 10:58:12;;;;;;;4.87;4.43;;;;;;;;;;4934091;29;20465;-71
2023/11/29 11:00:38;;;;;;;8.23;4.77;;;;;;;;;;4934363;29;20473;-71
2023/11/29 11:03:08;;;;;;;6.80;4.57;;;;;;;;;;4934452;29;20930;-72
2023/11/29 11:05:34;;;;;;;10.77;4.90;;;;;;;;;;4934490;29;20434;-72
2023/11/29 11:08:00;;;;;;;7.07;4.70;;;;;;;;;;4934235;29;20496;-71
2023/11/29 11:10:27;;;;;;;9.13;4.30;;;;;;;;;;4934222;29;20417;-73
2023/11/29 11:12:55;;;;;;;8.93;5.33;;;;;;;;;;4934322;29;20610;-72
2023/11/29 11:15:28;;;;;;;9.33;5.20;;;;;;;;;;4934126;29;20468;-72
2023/11/29 11:18:03;;;;;;;7.63;4.83;;;;;;;;;;4933435;29;20490;-72
2023/11/29 11:20:42;;;;;;;7.53;4.07;;;;;;;;;;4934255;29;20488;-71
2023/11/29 11:23:08;;;;;;;10.27;4.57;;;;;;;;;;4934464;29;20504;-71
2023/11/29 11:25:36;;;;;;;9.10;5.00;;;;;;;;;;4934070;29;20936;-71
2023/11/29 11:28:03;;;;;;;7.30;4.37;;;;;;;;;;4933768;29;20426;-72
2023/11/29 11:30:29;;;;;;;8.17;4.77;;;;;;;;;;4934157;29;20410;-72
2023/11/29 11:32:56;;;;;;;11.50;5.17;;;;;;;;;;4933849;29;20414;-71
2023/11/29 11:35:27;;;;;;;9.53;4.40;;;;;;;;;;4934043;29;20430;-72
2023/11/29 11:38:11;;;;;;;8.30;4.60;;;;;;;;;;4934295;29;20462;-71
2023/11/29 11:40:39;;;;;;;8.43;4.53;;;;;;;;;;4934935;29;20413;-71
2023/11/29 11:43:05;;;;;;;6.40;4.47;;;;;;;;;;4933849;29;20401;-71
2023/11/29 11:45:36;;;;;;;6.53;4.00;;;;;;;;;;4933888;29;21114;-72
2023/11/29 11:48:03;;;;;;;9.00;4.67;;;;;;;;;;4933441;29;20409;-72
2023/11/29 11:50:29;;;;;;;7.60;4.90;;;;;;;;;;4933420;29;20449;-72
2023/11/29 11:52:59;;;;;;;6.53;4.10;;;;;;;;;;4933654;29;20925;-72
2023/11/29 11:55:25;;;;;;;6.00;4.23;;;;;;;;;;4933787;29;20925;-71
2023/11/29 11:57:51;;;;;;;8.60;4.90;;;;;;;;;;4933133;29;20551;-72
2023/11/29 12:00:17;;;;;;;6.40;3.97;;;;;;;;;;4933784;29;20445;-72
2023/11/29 12:02:44;;;;;;;6.07;4.40;;;;;;;;;;4932421;29;20422;-72
2023/11/29 12:05:10;;;;;;;8.03;3.97;;;;;;;;;;4933783;29;20517;-71
2023/11/29 12:07:40;;;;;;;6.30;3.73;;;;;;;;;;4933670;29;20496;-72
2023/11/29 12:10:08;;;;;;;6.47;3.90;;;;;;;;;;4933850;29;20833;-72
2023/11/29 12:12:34;;;;;;;6.87;4.30;;;;;;;;;;4934009;29;20414;-72
2023/11/29 12:15:02;;;;;;;4.90;3.50;;;;;;;;;;4933786;29;20460;-73
2023/11/29 12:17:32;;;;;;;6.07;3.53;;;;;;;;;;4933441;29;20410;-72
2023/11/29 12:19:58;;;;;;;6.17;4.10;;;;;;;;;;4933962;29;20444;-72
2023/11/29 12:22:25;;;;;;;4.87;3.50;;;;;;;;;;4935901;29;20410;-73
2023/11/29 12:24:51;;;;;;;6.40;3.57;;;;;;;;;;4935065;29;20865;-73
2023/11/29 12:27:18;;;;;;;7.20;4.00;;;;;;;;;;4933900;29;20772;-73
2023/11/29 12:29:46;;;;;;;9.20;5.40;;;;;;;;;;4936971;29;20421;-73
2023/11/29 12:32:12;;;;;;;5.40;3.93;;;;;;;;;;4937390;29;20410;-73
2023/11/29 12:34:38;;;;;;;6.40;4.50;;;;;;;;;;4937271;29;20437;-73
2023/11/29 12:37:05;;;;;;;7.73;4.37;;;;;;;;;;4936821;29;20414;-73
2023/11/29 12:39:33;;;;;;;6.80;3.97;;;;;;;;;;4937296;29;20805;-73
2023/11/29 12:41:59;;;;;;;4.70;3.33;;;;;;;;;;4937308;29;20414;-73
2023/11/29 12:44:24;;;;;;;8.53;4.37;;;;;;;;;;4936963;29;20448;-74
2023/11/29 12:46:51;;;;;;;8.43;3.87;;;;;;;;;;4937008;29;20410;-73
2023/11/29 12:49:17;;;;;;;4.90;3.30;;;;;;;;;;4936828;29;20420;-73
2023/11/29 12:51:43;;;;;;;7.33;3.57;;;;;;;;;;4937336;29;20417;-73
2023/11/29 12:54:09;;;;;;;6.57;4.63;;;;;;;;;;4936984;29;20523;-73
2023/11/29 12:56:36;;;;;;;5.93;4.20;;;;;;;;;;4937136;29;20418;-73
2023/11/29 12:59:02;;;;;;;7.50;4.10;;;;;;;;;;4936386;29;20465;-73
2023/11/29 13:01:28;;;;;;;8.13;4.70;;;;;;;;;;4937142;29;20405;-73
2023/11/29 13:03:54;;;;;;;6.83;5.03;;;;;;;;;;4937095;29;20948;-72
2023/11/29 13:06:20;;;;;;;4.77;3.37;;;;;;;;;;4936731;29;20414;-72
2023/11/29 13:08:47;;;;;;;10.07;4.70;;;;;;;;;;4936687;29;20421;-73
2023/11/29 13:11:13;;;;;;;6.73;4.10;;;;;;;;;;4937131;29;20816;-73
2023/11/29 13:13:39;;;;;;;5.27;4.20;;;;;;;;;;4936061;29;20910;-73
2023/11/29 13:16:05;;;;;;;10.40;4.47;;;;;;;;;;4936296;29;20409;-73
2023/11/29 13:18:31;;;;;;;5.27;3.63;;;;;;;;;;4936349;29;20968;-73
2023/11/29 13:20:57;;;;;;;5.10;3.70;;;;;;;;;;4936807;29;20417;-73
2023/11/29 13:23:23;;;;;;;5.90;3.77;;;;;;;;;;4936609;29;20413;-73
2023/11/29 13:25:50;;;;;;;6.73;4.37;;;;;;;;;;4935492;29;20418;-72
2023/11/29 13:28:15;;;;;;;6.17;3.67;;;;;;;;;;4936470;29;20804;-73
2023/11/29 13:30:43;;;;;;;5.93;3.73;;;;;;;;;;4936847;29;20500;-72
2023/11/29 13:33:09;;;;;;;6.63;3.50;;;;;;;;;;4936885;29;20418;-72
2023/11/29 13:35:37;;;;;;;5.30;3.40;;;;;;;;;;4936320;29;20442;-72
2023/11/29 13:38:02;;;;;;;7.73;3.63;;;;;;;;;;4925970;29;20466;-72
2023/11/29 13:40:28;;;;;;;4.60;3.60;;;;;;;;;;4916479;29;20416;-71
2023/11/29 13:42:54;;;;;;;6.40;4.50;;;;;;;;;;4928645;29;20433;-74
2023/11/29 13:45:20;;;;;;;5.73;3.37;;;;;;;;;;4916747;29;20521;-73
2023/11/29 13:47:46;;;;;;;6.10;4.10;;;;;;;;;;4923266;29;20425;-73
2023/11/29 13:50:12;;;;;;;14.13;4.70;;;;;;;;;;4943348;29;20421;-73
2023/11/29 13:52:39;;;;;;;7.37;3.83;;;;;;;;;;4938777;29;20445;-72
2023/11/29 13:55:05;;;;;;;7.50;4.23;;;;;;;;;;4937769;29;20438;-72
2023/11/29 13:57:32;;;;;;;7.30;4.20;;;;;;;;;;4925323;29;20423;-70
2023/11/29 13:59:58;;;;;;;5.60;3.90;;;;;;;;;;4931247;29;20476;-70
2023/11/29 14:02:24;;;;;;;8.60;4.30;;;;;;;;;;4939936;29;20622;-70
2023/11/29 14:04:50;;;;;;;5.63;4.00;;;;;;;;;;4936702;29;20540;-71
2023/11/29 14:07:16;;;;;;;11.23;4.70;;;;;;;;;;4927052;29;20427;-71
2023/11/29 14:09:42;;;;;;;6.87;4.17;;;;;;;;;;4927538;29;20431;-72
2023/11/29 14:12:08;;;;;;;6.10;3.70;;;;;;;;;;4916238;29;20422;-70
2023/11/29 14:14:34;;;;;;;12.80;4.33;;;;;;;;;;4922875;29;20457;-71
2023/11/29 14:17:01;;;;;;;8.53;4.90;;;;;;;;;;4931092;29;20433;-69
2023/11/29 14:19:27;;;;;;;5.00;4.00;;;;;;;;;;4935874;29;20985;-71
2023/11/29 14:21:53;;;;;;;7.87;4.80;;;;;;;;;;4951657;29;20424;-70
2023/11/29 14:24:19;;;;;;;4.10;3.43;;;;;;;;;;4939217;29;20517;-70
2023/11/29 14:26:45;;;;;;;5.87;3.90;;;;;;;;;;4934858;29;20406;-69
2023/11/29 14:29:11;;;;;;;9.50;4.20;;;;;;;;;;4922689;29;20425;-70
2023/11/29 14:31:38;;;;;;;5.43;4.27;;;;;;;;;;4935202;29;20957;-69
2023/11/29 14:34:04;;;;;;;7.40;3.97;;;;;;;;;;4935085;29;20437;-71
2023/11/29 14:36:30;;;;;;;11.10;4.87;;;;;;;;;;4934229;29;20755;-72
2023/11/29 14:38:56;;;;;;;12.83;4.13;;;;;;;;;;4934508;29;20461;-68
2023/11/29 14:41:27;;;;;;;14.97;4.47;;;;;;;;;;4934882;29;20846;-69
2023/11/29 14:43:53;;;;;;;8.57;3.93;;;;;;;;;;4934865;29;20426;-70
2023/11/29 14:46:19;;;;;;;5.77;4.60;;;;;;;;;;4937997;29;20421;-69
2023/11/29 14:48:45;;;;;;;5.73;3.40;;;;;;;;;;4934660;29;20428;-70
2023/11/29 14:51:12;;;;;;;12.20;4.23;;;;;;;;;;4922834;29;20423;-70
2023/11/29 14:53:38;;;;;;;6.37;3.73;;;;;;;;;;4933338;29;21255;-71
2023/11/29 14:56:04;;;;;;;8.00;3.93;;;;;;;;;;4932415;29;20496;-70
2023/11/29 14:58:30;;;;;;;7.90;3.93;;;;;;;;;;4933990;29;20469;-69
2023/11/29 15:00:57;;;;;;;8.70;4.13;;;;;;;;;;4926153;29;20414;-69
2023/11/29 15:03:23;;;;;;;8.20;4.60;;;;;;;;;;4918055;29;20438;-72
2023/11/29 15:05:49;;;;;;;11.53;4.47;;;;;;;;;;4932269;29;20445;-71
2023/11/29 15:08:15;;;;;;;8.30;5.20;;;;;;;;;;4933299;29;20436;-72
2023/11/29 15:10:42;;;;;;;10.57;4.83;;;;;;;;;;4934049;29;20437;-73
2023/11/29 15:13:07;;;;;;;8.07;4.17;;;;;;;;;;4938152;29;20428;-72
2023/11/29 15:15:33;;;;;;;9.90;4.57;;;;;;;;;;4936420;28;20458;-72
2023/11/29 15:17:59;;;;;;;4.83;3.90;;;;;;;;;;4939238;29;20832;-72
2023/11/29 15:20:25;;;;;;;13.47;5.07;;;;;;;;;;4934665;29;20425;-71
2023/11/29 15:22:51;;;;;;;9.60;4.47;;;;;;;;;;4934240;29;20425;-72
2023/11/29 15:25:19;;;;;;;10.43;4.47;;;;;;;;;;4934004;29;20441;-72
2023/11/29 15:27:45;;;;;;;7.50;4.43;;;;;;;;;;4933913;29;20421;-75
2023/11/29 15:30:12;;;;;;;11.83;5.13;;;;;;;;;;4933740;29;20422;-77
2023/11/29 15:32:38;;;;;;;6.90;4.60;;;;;;;;;;4934889;29;20417;-75
2023/11/29 15:35:04;;;;;;;9.90;4.73;;;;;;;;;;4934105;29;20449;-73
2023/11/29 15:37:30;;;;;;;6.60;4.13;;;;;;;;;;4933299;29;20508;-73
2023/11/29 15:39:58;;;;;;;10.27;5.57;;;;;;;;;;4933873;29;20514;-72
2023/11/29 15:42:24;;;;;;;10.43;6.20;;;;;;;;;;4934029;29;20500;-72
2023/11/29 15:44:50;;;;;;;14.00;5.90;;;;;;;;;;4934572;29;20465;-70
2023/11/29 15:47:16;;;;;;;10.20;5.70;;;;;;;;;;4937201;29;20417;-70
2023/11/29 15:49:42;;;;;;;6.90;4.60;;;;;;;;;;4933294;29;20659;-71
2023/11/29 15:52:09;;;;;;;10.53;5.80;;;;;;;;;;4933956;29;20425;-72
2023/11/29 15:54:35;;;;;;;7.43;4.23;;;;;;;;;;4933919;29;20533;-72
2023/11/29 15:57:01;;;;;;;10.87;5.37;;;;;;;;;;4932999;29;20512;-71
2023/11/29 15:59:27;;;;;;;13.33;4.33;;;;;;;;;;4933793;29;20479;-72
2023/11/29 16:01:53;;;;;;;10.13;4.97;;;;;;;;;;4933417;29;20473;-73
2023/11/29 16:04:18;;;;;;;10.30;5.40;;;;;;;;;;4935789;29;20448;-72
2023/11/29 16:06:44;;;;;;;7.20;4.90;;;;;;;;;;4938111;29;20429;-72
2023/11/29 16:09:11;;;;;;;9.60;5.27;;;;;;;;;;4938152;29;20425;-73
2023/11/29 16:11:37;;;;;;;10.07;4.23;;;;;;;;;;4937444;29;20421;-72
2023/11/29 16:14:03;;;;;;;6.90;4.43;;;;;;;;;;4929697;29;20512;-72
2023/11/29 16:16:29;;;;;;;10.93;4.50;;;;;;;;;;4936347;29;20418;-72
2023/11/29 16:18:55;;;;;;;7.80;4.27;;;;;;;;;;4936492;29;20528;-71
2023/11/29 16:21:21;;;;;;;17.00;5.20;;;;;;;;;;4936925;29;20960;-71
2023/11/29 16:23:47;;;;;;;12.30;6.30;;;;;;;;;;4936551;29;20452;-71
2023/11/29 16:26:14;;;;;;;9.03;5.67;;;;;;;;;;4936566;29;20442;-70
2023/11/29 16:28:40;;;;;;;9.90;5.20;;;;;;;;;;4935904;29;20449;-70
2023/11/29 16:31:06;;;;;;;10.47;5.83;;;;;;;;;;4936709;29;20929;-69
2023/11/29 16:33:32;;;;;;;14.00;6.27;;;;;;;;;;4944823;29;20421;-71
2023/11/29 16:35:59;;;;;;;13.20;6.47;;;;;;;;;;4936399;29;20422;-70
2023/11/29 16:38:25;;;;;;;14.37;6.63;;;;;;;;;;4936692;29;20552;-70
2023/11/29 16:40:51;;;;;;;11.30;5.30;;;;;;;;;;4937018;29;20821;-70
2023/11/29 16:43:17;;;;;;;10.37;6.10;;;;;;;;;;4936922;29;20416;-71
2023/11/29 16:45:44;;;;;;;16.70;6.20;;;;;;;;;;4927848;29;20525;-71
2023/11/29 16:48:10;;;;;;;12.20;6.37;;;;;;;;;;4917306;29;20426;-69
2023/11/29 16:50:36;;;;;;;11.87;5.40;;;;;;;;;;4917642;29;20473;-70
2023/11/29 16:53:03;;;;;;;11.60;5.20;;;;;;;;;;4917515;29;20426;-70
2023/11/29 16:55:30;;;;;;;26.30;6.90;;;;;;;;;;4919371;29;20437;-70
2023/11/29 16:57:55;;;;;;;16.47;6.73;;;;;;;;;;4919270;29;20753;-71
2023/11/29 17:00:21;;;;;;;12.43;5.63;;;;;;;;;;4917662;29;20414;-70
2023/11/29 17:02:47;;;;;;;19.00;5.93;;;;;;;;;;4917505;29;20418;-69
2023/11/29 17:05:17;;;;;;;10.57;5.57;;;;;;;;;;4917800;29;20766;-71
2023/11/29 17:07:44;;;;;;;9.03;5.10;;;;;;;;;;4917493;29;20406;-71
2023/11/29 17:10:10;;;;;;;9.10;4.70;;;;;;;;;;4936410;29;20785;-71
2023/11/29 17:12:37;;;;;;;12.90;5.10;;;;;;;;;;4936444;29;20501;-70
2023/11/29 17:15:05;;;;;;;12.33;5.37;;;;;;;;;;4935455;29;20504;-69
2023/11/29 17:17:31;;;;;;;11.20;5.80;;;;;;;;;;4936121;29;20823;-71
2023/11/29 17:19:58;;;;;;;11.63;6.20;;;;;;;;;;4919122;29;20478;-73
2023/11/29 17:22:25;;;;;;;9.80;5.67;;;;;;;;;;4917414;29;20407;-71
2023/11/29 17:24:51;;;;;;;14.43;7.40;;;;;;;;;;4917428;29;20494;-74
2023/11/29 17:27:16;;;;;;;11.10;5.27;;;;;;;;;;4917437;29;20414;-73
2023/11/29 17:29:42;;;;;;;16.90;6.30;;;;;;;;;;4931640;29;20789;-71
2023/11/29 17:32:08;;;;;;;11.23;5.47;;;;;;;;;;4936292;29;20422;-72
2023/11/29 17:34:34;;;;;;;8.77;4.77;;;;;;;;;;4928401;29;20441;-72
2023/11/29 17:37:00;;;;;;;9.10;5.53;;;;;;;;;;4924536;29;20426;-74
2023/11/29 17:39:26;;;;;;;10.13;4.63;;;;;;;;;;4936197;29;20473;-73
2023/11/29 17:41:53;;;;;;;12.30;5.83;;;;;;;;;;4936304;29;20410;-72
2023/11/29 17:44:20;;;;;;;10.67;4.73;;;;;;;;;;4936288;29;20434;-72
2023/11/29 17:46:46;;;;;;;11.80;6.13;;;;;;;;;;4933643;29;20433;-73
2023/11/29 17:49:12;;;;;;;15.77;5.90;;;;;;;;;;4924005;29;20422;-73
2023/11/29 17:51:38;;;;;;;13.00;5.47;;;;;;;;;;4936364;29;20445;-75
2023/11/29 17:54:04;;;;;;;13.03;5.90;;;;;;;;;;4936254;29;20828;-74
2023/11/29 17:56:30;;;;;;;8.90;5.00;;;;;;;;;;4943746;29;20450;-75
2023/11/29 17:58:56;;;;;;;10.13;5.00;;;;;;;;;;4943044;29;20457;-73
2023/11/29 18:01:22;;;;;;;13.53;5.90;;;;;;;;;;4937025;29;20468;-74
2023/11/29 18:03:48;;;;;;;12.03;6.10;;;;;;;;;;4947896;29;20751;-73
2023/11/29 18:06:14;;;;;;;13.60;6.43;;;;;;;;;;4944684;29;20418;-73
2023/11/29 18:08:40;;;;;;;9.10;6.43;;;;;;;;;;4938989;29;20422;-73
2023/11/29 18:11:06;;;;;;;10.07;6.07;;;;;;;;;;4924663;29;20424;-72
2023/11/29 18:13:32;;;;;;;15.17;6.40;;;;;;;;;;4935417;29;20444;-72
2023/11/29 18:15:58;;;;;;;10.83;5.83;;;;;;;;;;4935288;29;20492;-72
2023/11/29 18:18:24;;;;;;;13.07;5.80;;;;;;;;;;4928585;29;20520;-73
2023/11/29 18:20:53;;;;;;;12.03;6.27;;;;;;;;;;4915286;29;20455;-72
2023/11/29 18:23:23;;;;;;;13.33;6.50;;;;;;;;;;4932077;29;20466;-73
2023/11/29 18:25:49;;;;;;;10.43;6.03;;;;;;;;;;4943978;29;20437;-73
2023/11/29 18:28:15;;;;;;;12.83;6.80;;;;;;;;;;4943854;29;20426;-73
2023/11/29 18:30:41;;;;;;;12.67;5.80;;;;;;;;;;4940372;29;20975;-72
2023/11/29 18:33:07;;;;;;;9.97;6.00;;;;;;;;;;4930938;29;20438;-71
2023/11/29 18:35:33;;;;;;;15.87;6.40;;;;;;;;;;4936849;29;20957;-72
2023/11/29 18:37:59;;;;;;;12.17;6.57;;;;;;;;;;4933327;29;20480;-71
2023/11/29 18:40:25;;;;;;;15.33;6.43;;;;;;;;;;4935024;29;20421;-72
2023/11/29 18:42:51;;;;;;;9.33;5.60;;;;;;;;;;4935764;29;20909;-72
2023/11/29 18:45:17;;;;;;;14.40;7.47;;;;;;;;;;4935483;29;20438;-72
2023/11/29 18:47:43;;;;;;;13.07;6.47;;;;;;;;;;4934902;29;20895;-72
2023/11/29 18:50:09;;;;;;;13.30;6.13;;;;;;;;;;4931879;29;20770;-72
2023/11/29 18:52:35;;;;;;;16.00;6.70;;;;;;;;;;4915589;29;20950;-73
2023/11/29 18:55:01;;;;;;;14.87;7.63;;;;;;;;;;4933826;29;20442;-73
2023/11/29 18:57:27;;;;;;;12.63;7.03;;;;;;;;;;4933552;29;20773;-72
2023/11/29 18:59:53;;;;;;;11.23;6.53;;;;;;;;;;4934922;29;20465;-72
2023/11/29 19:02:19;;;;;;;15.03;8.00;;;;;;;;;;4934852;29;20421;-72
2023/11/29 19:04:45;;;;;;;17.70;7.23;;;;;;;;;;4934959;29;20440;-72
2023/11/29 19:07:12;;;;;;;11.80;5.93;;;;;;;;;;4934534;29;20413;-72
2023/11/29 19:09:38;;;;;;;19.03;7.57;;;;;;;;;;4931065;29;20828;-71
2023/11/29 19:12:04;;;;;;;16.17;7.33;;;;;;;;;;4929511;29;20560;-71
2023/11/29 19:14:31;;;;;;;13.77;6.93;;;;;;;;;;4934202;29;20462;-71
2023/11/29 19:17:00;;;;;;;13.57;7.20;;;;;;;;;;4934065;29;20465;-71
2023/11/29 19:19:26;;;;;;;20.90;8.40;;;;;;;;;;4934521;29;20472;-71
2023/11/29 19:21:52;;;;;;;14.73;8.77;;;;;;;;;;4934178;29;20430;-72
2023/11/29 19:24:19;;;;;;;25.73;9.20;;;;;;;;;;4933125;29;20957;-72
2023/11/29 19:26:45;;;;;;;16.50;8.80;;;;;;;;;;4934446;29;20420;-71
2023/11/29 19:29:11;;;;;;;18.90;8.63;;;;;;;;;;4932971;29;20417;-71
2023/11/29 19:31:37;;;;;;;24.60;9.17;;;;;;;;;;4934933;29;20433;-72
2023/11/29 19:34:03;;;;;;;33.03;10.70;;;;;;;;;;4934820;29;20449;-72
2023/11/29 19:36:29;;;;;;;25.33;10.50;;;;;;;;;;4935047;29;20432;-72
2023/11/29 19:38:55;;;;;;;22.10;9.20;;;;;;;;;;4936536;29;20469;-71
2023/11/29 19:41:21;;;;;;;20.97;9.77;;;;;;;;;;4938980;29;21034;-73
2023/11/29 19:43:50;;;;;;;14.03;8.50;;;;;;;;;;4926170;29;20437;-72
2023/11/29 19:46:16;;;;;;;14.20;8.30;;;;;;;;;;4935609;29;20813;-72
2023/11/29 19:48:42;;;;;;;17.67;8.80;;;;;;;;;;4937276;29;20425;-72
2023/11/29 19:51:09;;;;;;;19.03;10.10;;;;;;;;;;4938034;29;20468;-72
2023/11/29 19:53:35;;;;;;;14.07;8.30;;;;;;;;;;4935460;29;20425;-72
2023/11/29 19:56:01;;;;;;;14.47;6.93;;;;;;;;;;4936902;29;20440;-72
2023/11/29 19:58:26;;;;;;;9.90;6.67;;;;;;;;;;4937510;29;20528;-71
2023/11/29 20:00:52;;;;;;;12.00;6.07;;;;;;;;;;4937528;29;20444;-72
2023/11/29 20:03:18;;;;;;;10.80;6.00;;;;;;;;;;4936873;29;20432;-71
2023/11/29 20:05:44;;;;;;;9.00;5.73;;;;;;;;;;4936796;29;20468;-70
2023/11/29 20:08:10;;;;;;;12.37;6.57;;;;;;;;;;4937272;29;20455;-70
2023/11/29 20:10:36;;;;;;;16.40;9.67;;;;;;;;;;4937542;29;20467;-70
2023/11/29 20:13:04;;;;;;;14.00;6.07;;;;;;;;;;4937437;29;20568;-71
2023/11/29 20:15:30;;;;;;;14.00;6.63;;;;;;;;;;4937427;29;20952;-72
2023/11/29 20:17:56;;;;;;;13.10;7.10;;;;;;;;;;4936781;29;20563;-73
2023/11/29 20:20:22;;;;;;;13.13;6.77;;;;;;;;;;4936269;29;20425;-73
2023/11/29 20:22:51;;;;;;;15.73;6.57;;;;;;;;;;4936752;29;20423;-73
2023/11/29 20:25:17;;;;;;;13.83;5.80;;;;;;;;;;4936804;29;20814;-74
2023/11/29 20:27:43;;;;;;;13.60;7.50;;;;;;;;;;4935309;29;20417;-73
2023/11/29 20:30:10;;;;;;;10.80;6.00;;;;;;;;;;4935192;29;20430;-73
2023/11/29 20:32:36;;;;;;;12.47;7.10;;;;;;;;;;4935090;29;20823;-73